Time;durP1;ratioP1;P1;durP2;ratioP2;P2;SDS_P1;SDS_P2;PMS_P1;PMS_P2;Temp;Humidity;BMP_temperature;BMP_pressure;BME280_temperature;BME280_humidity;BME280_pressure;Samples;Min_cycle;Max_cycle;Signal;HPM_P1;HPM_P2
2021/04/08 00:01:38;;;;;;;35.72;13.30;;;;;;;-1.22;67.51;98154.09;4992346;28;20036;-81
2021/04/08 00:04:03;;;;;;;40.17;14.15;;;;;;;-1.23;68.02;98160.56;5010051;28;20389;-82
2021/04/08 00:06:29;;;;;;;32.03;13.32;;;;;;;-1.24;67.76;98157.03;5009752;28;20057;-81
2021/04/08 00:08:54;;;;;;;28.92;11.60;;;;;;;-1.28;67.79;98155.84;5009810;28;20030;-81
2021/04/08 00:11:19;;;;;;;26.40;11.30;;;;;;;-1.31;67.60;98150.91;5009679;28;20033;-81
2021/04/08 00:13:45;;;;;;;27.63;12.15;;;;;;;-1.33;67.70;98161.06;5010038;28;20026;-81
2021/04/08 00:16:10;;;;;;;22.58;10.45;;;;;;;-1.36;67.48;98153.44;5009805;28;20028;-81
2021/04/08 00:18:36;;;;;;;28.33;11.07;;;;;;;-1.38;67.53;98151.00;5009810;28;20492;-81
2021/04/08 00:21:01;;;;;;;25.67;10.80;;;;;;;-1.39;67.29;98161.97;5009753;28;20055;-81
2021/04/08 00:23:27;;;;;;;27.15;10.23;;;;;;;-1.42;67.50;98146.28;5009803;28;20030;-80
2021/04/08 00:25:52;;;;;;;24.88;10.48;;;;;;;-1.43;68.09;98152.72;4992101;28;20466;-81
2021/04/08 00:28:18;;;;;;;25.38;11.23;;;;;;;-1.44;67.63;98151.91;5009806;28;20066;-81
2021/04/08 00:30:43;;;;;;;27.05;11.57;;;;;;;-1.44;67.60;98148.41;5011045;28;20030;-81
2021/04/08 00:33:18;;;;;;;25.13;10.75;;;;;;;-1.48;67.94;98139.94;5009760;28;20034;-81
2021/04/08 00:35:45;;;;;;;21.92;10.55;;;;;;;-1.47;67.85;98159.59;5009378;28;20419;-81
2021/04/08 00:38:11;;;;;;;20.40;9.50;;;;;;;-1.49;67.77;98159.81;5009485;28;20033;-81
2021/04/08 00:40:37;;;;;;;23.67;10.00;;;;;;;-1.49;67.47;98159.81;5009170;28;20542;-81
2021/04/08 00:43:03;;;;;;;17.13;8.52;;;;;;;-1.52;67.89;98155.72;5009299;28;20097;-81
2021/04/08 00:45:29;;;;;;;21.25;9.55;;;;;;;-1.54;68.05;98152.44;5009373;28;20052;-81
2021/04/08 00:47:55;;;;;;;20.83;9.60;;;;;;;-1.51;67.89;98154.66;5009318;28;20034;-81
2021/04/08 00:50:21;;;;;;;24.65;11.20;;;;;;;-1.53;68.03;98164.84;5009168;28;20026;-81
2021/04/08 00:52:54;;;;;;;20.30;9.85;;;;;;;-1.56;68.02;98151.84;4992009;28;20026;-81
2021/04/08 00:55:22;;;;;;;22.35;10.02;;;;;;;-1.54;68.08;98163.19;5009473;28;20030;-81
2021/04/08 00:57:47;;;;;;;21.25;10.40;;;;;;;-1.52;68.27;98160.25;4991686;28;20072;-81
2021/04/08 01:00:14;;;;;;;24.77;11.57;;;;;;;-1.54;68.01;98167.72;5009123;28;20486;-81
2021/04/08 01:02:39;;;;;;;29.48;11.63;;;;;;;-1.53;67.85;98170.22;5009284;28;20037;-81
2021/04/08 01:05:05;;;;;;;25.95;11.60;;;;;;;-1.51;68.27;98170.81;5009017;28;20050;-81
2021/04/08 01:07:33;;;;;;;25.75;11.23;;;;;;;-1.50;68.10;98163.56;5009993;28;20037;-81
2021/04/08 01:10:00;;;;;;;29.67;12.70;;;;;;;-1.51;68.35;98167.28;5012470;28;20086;-81
2021/04/08 01:12:25;;;;;;;31.80;12.35;;;;;;;-1.44;67.86;98173.41;5012525;28;20022;-81
2021/04/08 01:14:51;;;;;;;23.27;11.00;;;;;;;-1.42;68.29;98157.88;5012460;28;20059;-81
2021/04/08 01:17:22;;;;;;;27.52;11.63;;;;;;;-1.39;68.06;98168.19;5012425;28;20030;-81
2021/04/08 01:19:53;;;;;;;20.50;10.13;;;;;;;-1.34;68.25;98162.13;5012409;28;20026;-81
2021/04/08 01:22:18;;;;;;;21.20;10.45;;;;;;;-1.29;68.30;98166.84;5012251;28;20030;-81
2021/04/08 01:25:08;;;;;;;19.25;10.07;;;;;;;-1.25;68.53;98159.97;5012300;28;20026;-81
2021/04/08 01:27:42;;;;;;;20.05;10.15;;;;;;;-1.18;68.30;98165.25;5012617;28;20037;-81
2021/04/08 01:30:33;;;;;;;18.27;8.75;;;;;;;-1.20;68.38;98162.75;5012438;28;20117;-81
2021/04/08 01:33:00;;;;;;;18.73;8.40;;;;;;;-1.18;68.62;98173.31;5012450;28;20466;-81
2021/04/08 01:35:28;;;;;;;20.42;9.70;;;;;;;-1.18;68.65;98171.44;5011972;28;20033;-81
2021/04/08 01:38:09;;;;;;;21.90;9.60;;;;;;;-1.19;68.18;98175.16;5012391;28;20022;-81
2021/04/08 01:40:37;;;;;;;22.35;9.30;;;;;;;-1.17;68.43;98178.47;4994751;28;20048;-81
2021/04/08 01:43:04;;;;;;;17.70;8.80;;;;;;;-1.16;68.46;98173.91;5012288;28;20116;-81
2021/04/08 01:45:31;;;;;;;19.10;8.70;;;;;;;-1.17;68.71;98175.75;5011954;28;20386;-81
2021/04/08 01:47:58;;;;;;;21.60;9.27;;;;;;;-1.14;68.40;98185.28;5012074;28;20422;-81
2021/04/08 01:50:26;;;;;;;16.13;7.97;;;;;;;-1.12;68.40;98175.91;5012073;28;20065;-81
2021/04/08 01:52:52;;;;;;;15.77;7.95;;;;;;;-1.10;68.44;98171.13;5010598;28;20160;-81
2021/04/08 01:55:19;;;;;;;16.95;8.65;;;;;;;-1.06;68.27;98179.59;5010895;28;20026;-81
2021/04/08 01:57:47;;;;;;;21.30;9.00;;;;;;;-1.03;68.66;98181.81;4993907;28;20037;-81
2021/04/08 02:00:14;;;;;;;18.27;7.72;;;;;;;-1.00;68.62;98175.16;5010884;28;20568;-81
2021/04/08 02:02:45;;;;;;;33.28;11.48;;;;;;;-0.98;68.37;98181.94;5011774;28;20022;-81
2021/04/08 02:05:13;;;;;;;19.33;8.40;;;;;;;-0.92;68.25;98188.28;5011711;28;20528;-81
2021/04/08 02:07:40;;;;;;;15.80;7.50;;;;;;;-0.89;68.25;98187.84;5011856;28;20030;-81
2021/04/08 02:10:09;;;;;;;19.45;9.30;;;;;;;-0.85;68.42;98182.81;5011742;28;20037;-80
2021/04/08 02:12:40;;;;;;;24.35;10.45;;;;;;;-0.82;68.46;98199.34;5011648;28;20030;-80
2021/04/08 02:15:09;;;;;;;16.75;8.80;;;;;;;-0.77;68.43;98190.56;5011549;28;20109;-80
2021/04/08 02:17:36;;;;;;;21.90;9.15;;;;;;;-0.74;68.62;98187.41;5011643;28;20026;-80
2021/04/08 02:20:08;;;;;;;14.07;7.40;;;;;;;-0.70;68.69;98188.59;5010354;28;20550;-80
2021/04/08 02:22:34;;;;;;;21.83;9.00;;;;;;;-0.68;68.50;98197.28;5006276;28;20037;-79
2021/04/08 02:24:59;;;;;;;19.50;9.50;;;;;;;-0.66;68.72;98194.34;4978529;28;20041;-80
2021/04/08 02:27:27;;;;;;;25.88;10.93;;;;;;;-0.63;68.49;98201.97;4974708;28;20022;-80
2021/04/08 02:29:54;;;;;;;18.23;8.85;;;;;;;-0.62;68.57;98199.06;4978416;28;20042;-80
2021/04/08 02:32:19;;;;;;;17.50;8.20;;;;;;;-0.61;68.69;98205.25;4980604;28;20109;-79
2021/04/08 02:34:45;;;;;;;13.35;7.43;;;;;;;-0.60;68.67;98201.50;4984953;28;20496;-79
2021/04/08 02:37:10;;;;;;;27.38;10.63;;;;;;;-0.60;68.84;98205.00;4982910;28;20100;-80
2021/04/08 02:39:36;;;;;;;27.15;11.80;;;;;;;-0.63;69.13;98220.81;4987228;28;20025;-78
2021/04/08 02:42:01;;;;;;;36.65;14.05;;;;;;;-0.67;69.57;98211.56;4984123;28;20030;-79
2021/04/08 02:44:27;;;;;;;25.98;10.13;;;;;;;-0.74;69.96;98211.66;4979662;28;20117;-79
2021/04/08 02:46:52;;;;;;;35.20;13.95;;;;;;;-0.80;69.98;98208.00;4973320;28;20783;-79
2021/04/08 02:49:17;;;;;;;73.43;22.30;;;;;;;-0.82;70.94;98211.97;4976911;28;20678;-79
2021/04/08 02:51:54;;;;;;;49.33;15.10;;;;;;;-0.85;70.81;98207.03;4984712;28;20111;-79
2021/04/08 02:54:30;;;;;;;60.55;19.10;;;;;;;-0.87;70.88;98209.97;4984192;28;20034;-79
2021/04/08 02:57:00;;;;;;;21.98;9.73;;;;;;;-0.87;71.44;98215.34;4981562;28;20034;-79
2021/04/08 02:59:29;;;;;;;14.50;7.82;;;;;;;-0.91;71.46;98211.47;4985753;28;20027;-79
2021/04/08 03:02:08;;;;;;;31.10;12.52;;;;;;;-0.93;71.44;98216.25;4967715;28;20034;-79
2021/04/08 03:04:41;;;;;;;29.07;12.30;;;;;;;-0.95;71.97;98223.75;4980833;28;20038;-78
2021/04/08 03:07:07;;;;;;;13.95;7.68;;;;;;;-0.96;71.99;98220.22;4974200;28;20030;-80
2021/04/08 03:09:35;;;;;;;30.08;11.68;;;;;;;-0.94;72.46;98214.63;4973716;28;20033;-79
2021/04/08 03:12:04;;;;;;;21.02;10.93;;;;;;;-0.93;72.42;98217.06;4981309;28;20027;-79
2021/04/08 03:14:33;;;;;;;22.48;10.95;;;;;;;-0.92;72.54;98220.59;4984513;28;20026;-79
2021/04/08 03:17:00;;;;;;;19.15;10.38;;;;;;;-0.90;72.55;98223.88;4982854;28;20080;-77
2021/04/08 03:19:29;;;;;;;32.78;16.10;;;;;;;-0.86;73.35;98226.94;4984480;28;20034;-79
2021/04/08 03:21:57;;;;;;;18.85;10.50;;;;;;;-0.90;73.33;98227.38;4984133;28;20070;-79
2021/04/08 03:24:24;;;;;;;18.83;9.43;;;;;;;-0.87;73.75;98225.28;4984945;28;20034;-79
2021/04/08 03:26:50;;;;;;;32.80;13.40;;;;;;;-0.88;73.97;98223.66;4980456;28;20033;-78
2021/04/08 03:29:16;;;;;;;74.32;21.63;;;;;;;-0.87;73.62;98228.81;4958064;28;20030;-79
2021/04/08 03:31:46;;;;;;;82.38;22.50;;;;;;;-0.87;74.36;98228.81;4979956;28;20033;-79
2021/04/08 03:34:12;;;;;;;55.80;15.68;;;;;;;-0.86;74.12;98225.09;4982333;28;20022;-79
2021/04/08 03:36:38;;;;;;;93.45;24.10;;;;;;;-0.84;74.49;98238.31;4981930;28;20075;-79
2021/04/08 03:39:06;;;;;;;33.10;11.57;;;;;;;-0.85;74.67;98231.28;4985162;28;20419;-79
2021/04/08 03:41:36;;;;;;;124.20;27.65;;;;;;;-0.87;74.65;98236.06;4984585;28;20023;-78
2021/04/08 03:44:02;;;;;;;36.88;11.32;;;;;;;-0.88;74.75;98237.13;4983220;28;20025;-78
2021/04/08 03:46:28;;;;;;;106.95;25.17;;;;;;;-0.90;75.00;98240.03;4983570;28;20026;-78
2021/04/08 03:48:55;;;;;;;36.60;13.27;;;;;;;-0.92;75.21;98242.13;4975284;28;20052;-78
2021/04/08 03:51:25;;;;;;;25.40;11.20;;;;;;;-0.95;75.15;98239.91;4975317;28;20022;-79
2021/04/08 03:53:51;;;;;;;58.85;15.25;;;;;;;-0.99;75.39;98239.50;4994270;28;20083;-79
2021/04/08 03:56:19;;;;;;;179.95;36.50;;;;;;;-0.99;75.43;98249.47;4983385;28;20054;-79
2021/04/08 03:58:45;;;;;;;54.97;16.95;;;;;;;-1.02;75.54;98250.75;4982912;28;20026;-78
2021/04/08 04:01:13;;;;;;;88.40;22.45;;;;;;;-1.02;75.96;98248.06;4983210;28;20027;-78
2021/04/08 04:03:38;;;;;;;69.05;19.45;;;;;;;-1.01;75.69;98249.69;4982143;28;20026;-78
2021/04/08 04:06:07;;;;;;;48.90;17.77;;;;;;;-1.00;75.68;98248.63;4982043;28;20057;-78
2021/04/08 04:08:33;;;;;;;26.75;12.35;;;;;;;-0.99;75.92;98247.59;4981642;28;20028;-78
2021/04/08 04:10:58;;;;;;;29.33;14.48;;;;;;;-0.98;76.64;98251.94;4974966;28;20034;-79
2021/04/08 04:13:24;;;;;;;60.45;20.73;;;;;;;-0.96;76.05;98255.22;4974111;28;20129;-79
2021/04/08 04:15:50;;;;;;;28.80;14.32;;;;;;;-0.92;75.93;98255.59;4982010;28;20109;-79
2021/04/08 04:18:19;;;;;;;56.50;21.05;;;;;;;-0.87;75.78;98255.75;4983630;28;20030;-79
2021/04/08 04:20:45;;;;;;;34.00;15.20;;;;;;;-0.83;76.01;98261.50;4985166;28;20019;-78
2021/04/08 04:23:12;;;;;;;29.17;12.38;;;;;;;-0.83;75.68;98259.63;4981809;28;20530;-79
2021/04/08 04:25:38;;;;;;;22.58;11.40;;;;;;;-0.81;75.85;98259.41;4984619;28;20034;-79
2021/04/08 04:28:03;;;;;;;31.35;16.27;;;;;;;-0.81;75.84;98262.09;4983789;28;20038;-78
2021/04/08 04:30:29;;;;;;;43.13;18.25;;;;;;;-0.78;76.27;98270.53;4980903;28;20072;-78
2021/04/08 04:32:55;;;;;;;37.15;16.55;;;;;;;-0.77;75.94;98263.28;4972957;28;20019;-78
2021/04/08 04:35:21;;;;;;;34.95;15.32;;;;;;;-0.75;76.48;98269.25;4976364;28;20511;-78
2021/04/08 04:37:48;;;;;;;35.20;15.90;;;;;;;-0.76;76.68;98279.19;4999267;28;20122;-79
2021/04/08 04:40:14;;;;;;;32.90;15.38;;;;;;;-0.75;76.10;98271.97;4984028;28;20026;-79
2021/04/08 04:42:40;;;;;;;33.92;16.92;;;;;;;-0.72;75.96;98282.28;4964973;28;20038;-79
2021/04/08 04:45:06;;;;;;;35.20;17.33;;;;;;;-0.70;76.07;98276.66;4984617;28;20501;-78
2021/04/08 04:47:32;;;;;;;44.50;21.92;;;;;;;-0.71;75.90;98283.91;4986209;28;20031;-79
2021/04/08 04:49:57;;;;;;;26.95;16.00;;;;;;;-0.68;76.29;98282.63;4984984;28;20041;-78
2021/04/08 04:52:23;;;;;;;33.35;15.07;;;;;;;-0.66;75.96;98294.84;4958795;28;20027;-78
2021/04/08 04:54:49;;;;;;;30.80;16.33;;;;;;;-0.64;75.99;98298.13;4976048;28;20048;-78
2021/04/08 04:57:14;;;;;;;38.38;21.35;;;;;;;-0.60;75.69;98303.88;4985582;28;20026;-78
2021/04/08 04:59:39;;;;;;;27.15;14.25;;;;;;;-0.57;75.83;98300.72;4986354;28;20036;-78
2021/04/08 05:02:05;;;;;;;27.98;13.88;;;;;;;-0.56;75.58;98305.06;4986375;28;20033;-78
2021/04/08 05:04:30;;;;;;;28.65;14.10;;;;;;;-0.55;75.88;98305.88;4984432;28;20038;-78
2021/04/08 05:06:56;;;;;;;30.73;14.75;;;;;;;-0.53;75.58;98310.00;4986926;28;20039;-78
2021/04/08 05:09:21;;;;;;;29.20;15.02;;;;;;;-0.49;75.89;98313.88;4979752;28;20030;-78
2021/04/08 05:11:46;;;;;;;28.02;14.57;;;;;;;-0.45;75.63;98319.63;4965049;28;20058;-78
2021/04/08 05:14:12;;;;;;;24.98;14.13;;;;;;;-0.41;75.58;98334.28;4974391;28;20732;-78
2021/04/08 05:16:37;;;;;;;27.58;14.25;;;;;;;-0.39;75.63;98332.19;4977795;28;20123;-78
2021/04/08 05:19:03;;;;;;;29.00;14.05;;;;;;;-0.38;75.94;98330.31;4985528;28;20097;-78
2021/04/08 05:21:28;;;;;;;34.63;16.30;;;;;;;-0.35;75.69;98337.94;4985740;28;20030;-78
2021/04/08 05:23:53;;;;;;;33.00;15.90;;;;;;;-0.31;75.64;98342.66;4989579;28;20058;-77
2021/04/08 05:26:20;;;;;;;35.78;19.88;;;;;;;-0.26;75.37;98338.47;4992310;28;21132;-78
2021/04/08 05:28:45;;;;;;;33.45;17.52;;;;;;;-0.22;75.68;98347.75;4992454;28;20022;-78
2021/04/08 05:31:11;;;;;;;28.77;15.10;;;;;;;-0.18;75.56;98352.44;4991820;28;20393;-77
2021/04/08 05:33:36;;;;;;;32.95;16.42;;;;;;;-0.13;75.50;98359.03;4983074;28;20073;-77
2021/04/08 05:36:01;;;;;;;31.58;14.48;;;;;;;-0.08;75.33;98368.06;4967936;28;20054;-78
2021/04/08 05:38:27;;;;;;;40.63;17.13;;;;;;;-0.06;75.30;98357.84;4987527;28;20390;-78
2021/04/08 05:40:52;;;;;;;37.53;17.25;;;;;;;-0.03;74.94;98362.00;4990035;28;20031;-77
2021/04/08 05:43:18;;;;;;;38.15;18.48;;;;;;;0.02;74.93;98374.78;4986593;28;20378;-76
2021/04/08 05:45:45;;;;;;;35.88;17.85;;;;;;;0.09;75.24;98378.19;4987499;28;20033;-77
2021/04/08 05:48:11;;;;;;;32.58;16.80;;;;;;;0.23;75.06;98378.81;4987943;28;20026;-77
2021/04/08 05:50:36;;;;;;;32.85;15.95;;;;;;;0.35;74.76;98384.22;4986584;28;20386;-77
2021/04/08 05:53:01;;;;;;;19.35;9.30;;;;;;;0.45;74.92;98381.81;4983262;28;20027;-77
2021/04/08 05:55:27;;;;;;;40.20;18.08;;;;;;;0.58;74.59;98400.50;4980784;28;20506;-77
2021/04/08 05:57:52;;;;;;;45.75;21.00;;;;;;;0.66;74.33;98395.78;4979155;28;20030;-77
2021/04/08 06:00:18;;;;;;;47.88;21.90;;;;;;;0.70;74.02;98396.97;4985476;28;20474;-78
2021/04/08 06:02:44;;;;;;;28.48;13.82;;;;;;;0.74;73.91;98398.13;4984857;28;20095;-78
2021/04/08 06:05:09;;;;;;;39.80;14.48;;;;;;;0.81;73.42;98400.75;4985918;28;20495;-78
2021/04/08 06:07:35;;;;;;;49.17;18.98;;;;;;;0.84;73.61;98406.50;4986304;28;20390;-77
2021/04/08 06:10:00;;;;;;;52.83;19.77;;;;;;;0.91;73.24;98409.06;4987301;28;20038;-76
2021/04/08 06:12:26;;;;;;;43.63;16.92;;;;;;;0.96;73.58;98411.09;4984924;28;20080;-77
2021/04/08 06:14:51;;;;;;;25.98;10.13;;;;;;;0.98;72.87;98417.88;4983280;28;20035;-78
2021/04/08 06:17:17;;;;;;;46.65;16.45;;;;;;;1.01;72.77;98419.31;4981017;28;20890;-77
2021/04/08 06:19:44;;;;;;;33.83;13.55;;;;;;;1.07;72.66;98431.03;4979368;28;20056;-77
2021/04/08 06:22:10;;;;;;;43.53;15.85;;;;;;;1.15;73.10;98430.69;4988963;28;20033;-77
2021/04/08 06:24:35;;;;;;;27.55;12.32;;;;;;;1.21;72.44;98431.63;4986967;28;20796;-77
2021/04/08 06:27:01;;;;;;;25.15;10.38;;;;;;;1.26;72.67;98432.53;4987823;28;20041;-76
2021/04/08 06:29:26;;;;;;;23.45;10.00;;;;;;;1.32;72.28;98431.59;4987522;28;20030;-77
2021/04/08 06:31:52;;;;;;;20.67;8.82;;;;;;;1.43;72.30;98437.25;4968174;28;20034;-77
2021/04/08 06:34:17;;;;;;;14.10;6.57;;;;;;;1.59;71.87;98436.53;4986078;28;20099;-76
2021/04/08 06:36:43;;;;;;;14.90;6.57;;;;;;;1.77;71.60;98434.69;4983410;28;20026;-77
2021/04/08 06:39:08;;;;;;;11.73;6.60;;;;;;;1.93;71.25;98441.25;4981955;28;20025;-77
2021/04/08 06:41:38;;;;;;;10.95;6.15;;;;;;;2.02;70.40;98450.63;4982698;28;20037;-78
2021/04/08 06:44:06;;;;;;;9.23;5.15;;;;;;;2.11;69.96;98450.25;4986211;28;20034;-78
2021/04/08 06:46:39;;;;;;;11.20;6.07;;;;;;;2.17;69.99;98458.22;4979336;28;20432;-77
2021/04/08 06:49:12;;;;;;;10.77;5.43;;;;;;;2.17;69.16;98455.50;4986951;28;20094;-77
2021/04/08 06:51:42;;;;;;;9.90;4.97;;;;;;;2.20;69.40;98460.44;4985668;28;20042;-77
2021/04/08 06:54:08;;;;;;;8.25;4.97;;;;;;;2.30;69.43;98454.38;4987208;28;20036;-78
2021/04/08 06:56:34;;;;;;;9.82;5.07;;;;;;;2.32;68.60;98459.56;4986862;28;20110;-78
2021/04/08 06:59:00;;;;;;;9.15;4.63;;;;;;;2.26;69.02;98469.47;4972466;28;20108;-79
2021/04/08 07:01:26;;;;;;;7.80;4.22;;;;;;;2.21;68.43;98467.50;4981928;28;20030;-80
2021/04/08 07:03:53;;;;;;;8.68;4.72;;;;;;;2.18;68.46;98480.69;4982734;28;20034;-78
2021/04/08 07:06:18;;;;;;;10.02;5.15;;;;;;;2.19;68.91;98471.50;4985941;28;20490;-77
2021/04/08 07:08:45;;;;;;;10.85;5.53;;;;;;;2.15;68.00;98479.28;4985259;28;20045;-77
2021/04/08 07:11:11;;;;;;;8.88;4.60;;;;;;;2.12;67.75;98479.75;4984441;28;20117;-77
2021/04/08 07:13:37;;;;;;;9.48;4.80;;;;;;;2.08;68.14;98474.00;4986027;28;20675;-77
2021/04/08 07:16:03;;;;;;;10.88;4.78;;;;;;;2.09;68.30;98477.53;4980747;28;20041;-76
2021/04/08 07:18:28;;;;;;;6.32;3.92;;;;;;;2.12;68.69;98487.06;4978491;28;20569;-77
2021/04/08 07:20:56;;;;;;;9.30;4.80;;;;;;;2.17;68.34;98479.06;4992335;28;20171;-79
2021/04/08 07:23:22;;;;;;;10.18;4.95;;;;;;;2.25;68.20;98485.97;5010499;28;20043;-77
2021/04/08 07:26:08;;;;;;;10.10;5.88;;;;;;;2.24;67.11;98493.25;5010506;28;20053;-78
2021/04/08 07:28:38;;;;;;;15.20;8.15;;;;;;;2.34;67.32;98498.84;5010566;28;20033;-79
2021/04/08 07:31:29;;;;;;;14.67;7.63;;;;;;;2.50;67.67;98509.97;4992816;28;20037;-81
2021/04/08 07:33:57;;;;;;;23.05;10.80;;;;;;;2.71;67.29;98502.22;4992621;28;20355;-76
2021/04/08 07:36:34;;;;;;;12.82;5.68;;;;;;;2.81;66.21;98515.94;5009093;28;20040;-77
2021/04/08 07:39:03;;;;;;;30.45;14.65;;;;;;;2.93;66.72;98510.47;5008528;28;20030;-76
2021/04/08 07:41:36;;;;;;;9.90;5.13;;;;;;;2.96;64.97;98529.78;5009152;28;20485;-77
2021/04/08 07:44:04;;;;;;;7.93;3.63;;;;;;;2.94;65.30;98520.22;5010082;28;20033;-77
2021/04/08 07:46:41;;;;;;;9.73;3.90;;;;;;;2.90;64.66;98524.50;5010002;28;20159;-78
2021/04/08 07:49:27;;;;;;;8.60;4.20;;;;;;;2.95;64.40;98533.53;5010082;28;20078;-77
2021/04/08 07:51:53;;;;;;;12.20;5.97;;;;;;;3.01;63.58;98553.41;5010005;28;20046;-76
2021/04/08 07:54:19;;;;;;;12.63;5.13;;;;;;;3.05;62.63;98545.63;5010382;28;20378;-78
2021/04/08 07:56:45;;;;;;;12.45;5.40;;;;;;;3.08;62.21;98545.13;5010268;28;20026;-77
2021/04/08 07:59:26;;;;;;;34.70;14.38;;;;;;;3.15;63.05;98562.03;5009885;28;20474;-77
2021/04/08 08:02:04;;;;;;;16.23;8.95;;;;;;;3.15;60.44;98555.81;4992178;28;20025;-77
2021/04/08 08:04:30;;;;;;;19.23;11.65;;;;;;;3.11;61.53;98560.88;5010115;28;20029;-77
2021/04/08 08:06:57;;;;;;;24.95;8.98;;;;;;;3.07;60.56;98562.44;5009881;28;20026;-77
2021/04/08 08:09:26;;;;;;;28.38;13.10;;;;;;;3.11;61.31;98567.16;5009861;28;20041;-78
2021/04/08 08:11:53;;;;;;;33.00;14.82;;;;;;;3.06;60.25;98569.75;5009680;28;20065;-77
2021/04/08 08:14:36;;;;;;;13.55;6.78;;;;;;;2.95;60.06;98587.72;5009377;28;20417;-77
2021/04/08 08:17:11;;;;;;;15.20;6.63;;;;;;;2.74;59.71;98585.69;4991865;28;20641;-78
2021/04/08 08:19:38;;;;;;;12.85;6.20;;;;;;;2.61;61.01;98589.50;5013128;28;20441;-77
2021/04/08 08:22:05;;;;;;;11.75;5.20;;;;;;;2.49;61.03;98594.97;5013158;28;20038;-79
2021/04/08 08:24:31;;;;;;;18.15;7.70;;;;;;;2.46;61.81;98590.84;5012844;28;20120;-78
2021/04/08 08:26:57;;;;;;;29.52;12.32;;;;;;;2.51;61.62;98590.13;5012765;28;20152;-80
2021/04/08 08:29:29;;;;;;;21.85;8.00;;;;;;;2.62;61.62;98594.72;4995547;28;20116;-78
2021/04/08 08:32:05;;;;;;;24.08;9.75;;;;;;;2.79;61.79;98592.03;5012756;28;20519;-78
2021/04/08 08:34:35;;;;;;;11.98;5.00;;;;;;;2.90;61.52;98594.94;5012617;28;20033;-79
2021/04/08 08:37:02;;;;;;;31.35;13.30;;;;;;;2.99;61.92;98601.59;5012854;28;20424;-82
2021/04/08 08:39:32;;;;;;;20.52;7.43;;;;;;;3.09;61.48;98600.97;5012347;28;20034;-80
2021/04/08 08:41:59;;;;;;;20.02;9.98;;;;;;;3.10;60.36;98606.16;5012528;28;20030;-79
2021/04/08 08:44:25;;;;;;;22.08;11.70;;;;;;;3.05;60.30;98605.25;5012524;28;20049;-79
2021/04/08 08:47:09;;;;;;;18.98;10.20;;;;;;;3.09;60.21;98603.66;5012483;28;20037;-80
2021/04/08 08:49:41;;;;;;;81.00;33.58;;;;;;;3.17;60.66;98605.19;5012379;28;20071;-79
2021/04/08 08:52:09;;;;;;;32.45;10.68;;;;;;;3.21;60.15;98590.88;5011414;28;20040;-79
2021/04/08 08:54:35;;;;;;;16.30;6.55;;;;;;;3.43;60.17;98606.44;5012064;28;20030;-79
2021/04/08 08:57:02;;;;;;;6.32;3.75;;;;;;;3.68;58.78;98599.78;5010259;28;20288;-79
2021/04/08 08:59:28;;;;;;;19.98;6.80;;;;;;;3.85;59.17;98597.88;5010839;28;20030;-79
2021/04/08 09:01:54;;;;;;;40.35;16.13;;;;;;;3.92;58.05;98611.25;5011201;28;20037;-79
2021/04/08 09:04:20;;;;;;;12.85;5.07;;;;;;;3.90;57.12;98612.56;5011069;28;20478;-79
2021/04/08 09:06:46;;;;;;;28.45;9.15;;;;;;;3.73;56.59;98621.56;5011777;28;20052;-79
2021/04/08 09:09:14;;;;;;;21.38;7.57;;;;;;;3.68;55.46;98618.75;5012276;28;20109;-79
2021/04/08 09:11:41;;;;;;;7.53;3.28;;;;;;;3.63;56.55;98621.38;5012345;28;20530;-79
2021/04/08 09:14:08;;;;;;;10.70;4.53;;;;;;;3.68;56.93;98626.91;5012424;28;20033;-79
2021/04/08 09:16:46;;;;;;;18.98;6.97;;;;;;;3.77;57.55;98630.00;5012517;28;20026;-79
2021/04/08 09:19:13;;;;;;;18.80;6.82;;;;;;;3.83;56.65;98615.47;5012437;28;20026;-79
2021/04/08 09:21:44;;;;;;;23.25;8.35;;;;;;;3.85;56.46;98633.16;5012177;28;20022;-78
2021/04/08 09:24:20;;;;;;;20.52;7.55;;;;;;;3.78;57.73;98666.94;5012456;28;20429;-79
2021/04/08 09:26:56;;;;;;;22.95;8.52;;;;;;;3.37;60.59;98691.47;5012253;28;20109;-79
2021/04/08 09:29:34;;;;;;;19.98;7.07;;;;;;;2.76;63.29;98695.44;5011762;28;20500;-79
2021/04/08 09:32:21;;;;;;;17.02;5.38;;;;;;;2.10;66.92;98711.03;5011995;28;20112;-78
2021/04/08 09:35:05;;;;;;;17.00;5.00;;;;;;;1.41;69.51;98707.75;5012022;28;20030;-78
2021/04/08 09:37:46;;;;;;;18.55;6.32;;;;;;;1.03;71.33;98720.50;5011311;28;20050;-78
2021/04/08 09:40:23;;;;;;;11.93;4.00;;;;;;;0.76;72.07;98730.00;5019830;28;20028;-78
2021/04/08 09:43:08;;;;;;;13.25;5.65;;;;;;;0.58;71.88;98710.88;5026785;28;20022;-77
2021/04/08 09:45:36;;;;;;;15.05;6.20;;;;;;;0.65;71.75;98718.06;5011500;28;20109;-78
2021/04/08 09:48:15;;;;;;;21.35;8.80;;;;;;;0.76;71.87;98716.50;5011336;28;20419;-77
2021/04/08 09:50:48;;;;;;;6.65;3.20;;;;;;;1.00;72.01;98718.25;5011564;28;20092;-78
2021/04/08 09:53:16;;;;;;;11.27;6.00;;;;;;;1.33;72.64;98710.78;5011457;28;20478;-78
2021/04/08 09:55:58;;;;;;;28.33;11.40;;;;;;;1.61;72.91;98720.97;5011265;28;20026;-79
2021/04/08 09:58:29;;;;;;;22.92;10.70;;;;;;;1.82;72.68;98709.84;5011293;28;20150;-78
2021/04/08 10:01:01;;;;;;;9.18;4.85;;;;;;;1.81;72.73;98741.47;5009873;28;20026;-78
2021/04/08 10:03:26;;;;;;;9.07;3.95;;;;;;;1.62;71.69;98738.00;5009784;28;20026;-79
2021/04/08 10:05:52;;;;;;;7.20;3.35;;;;;;;1.29;72.23;98728.50;5009948;28;20056;-78
2021/04/08 10:08:24;;;;;;;10.57;4.47;;;;;;;1.10;72.59;98741.22;5011055;28;20412;-79
2021/04/08 10:10:50;;;;;;;6.10;2.88;;;;;;;0.94;73.05;98740.78;5008638;28;20053;-79
2021/04/08 10:13:25;;;;;;;11.63;5.07;;;;;;;0.76;73.60;98738.09;5010820;28;20641;-79
2021/04/08 10:15:56;;;;;;;6.03;2.60;;;;;;;0.70;73.86;98739.81;4991617;28;20046;-79
2021/04/08 10:18:31;;;;;;;5.78;2.70;;;;;;;0.64;73.88;98738.84;4991884;28;20501;-79
2021/04/08 10:21:00;;;;;;;12.18;5.22;;;;;;;0.61;73.73;98741.16;4991754;28;20034;-80
2021/04/08 10:23:47;;;;;;;6.25;3.30;;;;;;;0.62;73.87;98745.50;4991560;28;20056;-78
2021/04/08 10:26:16;;;;;;;9.90;3.92;;;;;;;0.64;74.04;98741.53;4991793;28;20026;-78
2021/04/08 10:28:56;;;;;;;8.23;3.83;;;;;;;0.59;74.34;98750.31;4991622;28;20034;-78
2021/04/08 10:31:36;;;;;;;11.98;4.90;;;;;;;0.66;73.83;98749.41;4991561;28;20031;-79
2021/04/08 10:34:05;;;;;;;7.72;4.10;;;;;;;0.80;74.04;98745.50;4991554;28;20027;-78
2021/04/08 10:36:39;;;;;;;5.80;2.95;;;;;;;1.04;74.73;98743.78;4991217;28;20048;-78
2021/04/08 10:39:18;;;;;;;4.40;2.83;;;;;;;1.28;74.95;98748.47;4990581;28;20038;-78
2021/04/08 10:42:10;;;;;;;6.97;3.60;;;;;;;1.68;74.96;98744.38;4990551;28;20030;-78
2021/04/08 10:44:38;;;;;;;5.90;3.45;;;;;;;2.12;74.54;98744.91;4992685;28;20071;-78
2021/04/08 10:47:07;;;;;;;10.02;4.78;;;;;;;2.68;74.75;98755.41;4991280;28;20034;-78
2021/04/08 10:49:35;;;;;;;11.63;5.28;;;;;;;2.95;72.73;98744.03;4991424;28;20045;-77
2021/04/08 10:52:06;;;;;;;9.00;3.97;;;;;;;3.07;71.98;98755.69;4991228;28;20030;-77
2021/04/08 10:54:33;;;;;;;8.20;3.65;;;;;;;2.95;71.41;98758.44;4991301;28;20084;-78
2021/04/08 10:56:59;;;;;;;12.13;3.90;;;;;;;2.89;70.16;98761.25;4991133;28;20057;-77
2021/04/08 10:59:26;;;;;;;8.35;3.17;;;;;;;2.83;69.57;98746.78;4991219;28;20056;-78
2021/04/08 11:01:53;;;;;;;10.60;3.78;;;;;;;2.78;69.89;98750.22;4991043;28;20041;-78
2021/04/08 11:04:20;;;;;;;9.02;3.20;;;;;;;2.71;69.41;98754.94;4991079;28;20101;-77
2021/04/08 11:06:47;;;;;;;10.15;4.35;;;;;;;2.68;69.81;98744.56;4990969;28;20121;-77
2021/04/08 11:09:21;;;;;;;12.68;4.95;;;;;;;2.70;69.91;98742.44;4991139;28;20026;-78
2021/04/08 11:11:47;;;;;;;7.35;3.22;;;;;;;2.82;70.16;98737.84;4990940;28;20039;-78
2021/04/08 11:14:23;;;;;;;13.88;4.85;;;;;;;3.02;70.18;98749.34;4991002;28;20031;-77
2021/04/08 11:16:51;;;;;;;8.57;3.90;;;;;;;3.28;70.14;98746.06;4991182;28;20073;-78
2021/04/08 11:19:17;;;;;;;12.68;6.30;;;;;;;3.54;69.31;98753.88;4990739;28;20110;-78
2021/04/08 11:21:43;;;;;;;14.45;5.80;;;;;;;3.60;68.36;98760.22;4991148;28;20102;-78
2021/04/08 11:24:10;;;;;;;12.15;4.68;;;;;;;3.74;67.65;98764.28;4990997;28;20105;-78
2021/04/08 11:26:51;;;;;;;6.38;3.55;;;;;;;3.96;65.80;98767.09;4990962;28;20022;-78
2021/04/08 11:29:25;;;;;;;12.50;4.90;;;;;;;4.01;65.07;98760.94;4990900;28;20069;-79
2021/04/08 11:32:16;;;;;;;15.68;4.53;;;;;;;4.23;64.97;98774.59;4990716;28;20421;-78
2021/04/08 11:34:48;;;;;;;8.30;3.15;;;;;;;4.38;64.04;98776.72;4990474;28;20042;-79